createdAt,value
2022-12-23T00:02:25.840Z,34.60
2022-12-23T00:05:31.370Z,35.80
2022-12-23T00:08:37.726Z,33.40
2022-12-23T00:11:59.389Z,37.20
2022-12-23T00:15:07.312Z,35.70
2022-12-23T00:18:09.330Z,36.80
2022-12-23T00:24:14.245Z,37.10
2022-12-23T00:30:17.597Z,37.20
2022-12-23T00:36:29.674Z,34.30
2022-12-23T00:39:54.807Z,36.30
2022-12-23T00:42:56.943Z,33.90
2022-12-23T00:45:58.896Z,38.50
2022-12-23T00:49:19.392Z,40.10
2022-12-23T00:52:21.827Z,39.40
2022-12-23T00:58:26.628Z,37.90
2022-12-23T01:01:47.049Z,39.10
2022-12-23T01:05:08.022Z,37.90
2022-12-23T01:08:11.913Z,41.20
2022-12-23T01:11:13.683Z,37.80
2022-12-23T01:14:15.730Z,36.30
2022-12-23T01:17:17.632Z,37.20
2022-12-23T01:20:19.579Z,36.70
2022-12-23T01:23:21.579Z,34.70
2022-12-23T01:26:23.433Z,31.80
2022-12-23T01:29:25.631Z,31.30
2022-12-23T01:32:27.432Z,36.20
2022-12-23T01:35:29.169Z,36.40
2022-12-23T01:42:12.667Z,36.00
2022-12-23T01:45:25.330Z,37.30
2022-12-23T01:48:27.473Z,31.00
2022-12-23T01:51:29.968Z,31.50
2022-12-23T01:54:31.903Z,30.80
2022-12-23T01:57:34.465Z,30.30
2022-12-23T02:00:55.352Z,32.10
2022-12-23T02:04:00.428Z,32.70
2022-12-23T02:07:21.838Z,30.60
2022-12-23T02:10:26.601Z,30.30
2022-12-23T02:14:05.323Z,29.60
2022-12-23T02:17:17.888Z,30.10
2022-12-23T02:20:47.493Z,29.80
2022-12-23T02:24:11.709Z,32.10
2022-12-23T02:27:32.365Z,31.50
2022-12-23T02:30:48.398Z,29.30
2022-12-23T02:34:36.515Z,30.50
2022-12-23T02:37:44.392Z,30.80
2022-12-23T02:40:51.892Z,29.10
2022-12-23T02:44:01.275Z,28.40
2022-12-23T02:47:11.319Z,29.30
2022-12-23T02:50:20.482Z,28.40
2022-12-23T02:53:27.661Z,29.50
2022-12-23T02:56:33.265Z,31.90
2022-12-23T02:59:46.255Z,30.10
2022-12-23T03:02:49.090Z,31.60
2022-12-23T03:05:51.547Z,30.30
2022-12-23T03:08:56.661Z,31.50
2022-12-23T03:12:01.842Z,31.90
2022-12-23T03:15:22.441Z,33.40
2022-12-23T03:18:56.274Z,34.60
2022-12-23T03:22:20.282Z,40.60
2022-12-23T03:25:26.353Z,39.30
2022-12-23T03:28:36.414Z,36.10
2022-12-23T03:31:39.712Z,38.00
2022-12-23T03:34:45.333Z,38.30
2022-12-23T03:37:49.875Z,34.10
2022-12-23T03:40:58.354Z,34.70
2022-12-23T03:44:07.868Z,36.20
2022-12-23T03:47:13.587Z,32.90
2022-12-23T03:50:18.026Z,31.70
2022-12-23T03:53:26.167Z,33.90
2022-12-23T03:56:43.637Z,31.10
2022-12-23T03:59:47.522Z,32.90
2022-12-23T04:03:03.025Z,34.40
2022-12-23T04:06:06.554Z,33.10
2022-12-23T04:09:08.512Z,39.00
2022-12-23T04:12:10.430Z,54.70
2022-12-23T04:15:13.364Z,42.40
2022-12-23T04:18:16.458Z,44.20
2022-12-23T04:21:18.319Z,41.40
2022-12-23T04:24:20.040Z,44.90
2022-12-23T04:30:27.958Z,46.50
2022-12-23T04:33:33.322Z,46.80
2022-12-23T04:39:36.668Z,44.70
2022-12-23T04:42:38.429Z,41.30
2022-12-23T04:48:41.791Z,33.00
2022-12-23T04:54:46.525Z,33.40
2022-12-23T04:57:48.547Z,32.70
2022-12-23T05:00:50.480Z,35.30
2022-12-23T05:03:52.244Z,31.60
2022-12-23T05:09:55.654Z,33.70
2022-12-23T05:16:00.228Z,36.60
2022-12-23T05:19:02.080Z,35.40
2022-12-23T05:25:06.168Z,39.50
2022-12-23T05:28:08.124Z,35.80
2022-12-23T05:34:12.274Z,36.10
2022-12-23T05:37:14.109Z,36.30
2022-12-23T05:40:21.559Z,42.20
2022-12-23T05:43:25.314Z,37.50
2022-12-23T05:49:29.325Z,34.90
2022-12-23T05:55:32.759Z,39.50
2022-12-23T06:01:36.328Z,44.80
2022-12-23T06:07:40.752Z,41.40
2022-12-23T06:10:42.407Z,43.60
2022-12-23T06:13:44.279Z,40.30
2022-12-23T06:19:47.909Z,37.80
2022-12-23T06:22:49.706Z,46.30
2022-12-23T06:28:59.769Z,48.20
2022-12-23T06:32:01.512Z,46.80
2022-12-23T06:38:10.301Z,52.80
2022-12-23T06:41:13.703Z,55.10
2022-12-23T06:47:17.360Z,49.40
2022-12-23T06:50:20.152Z,50.80
2022-12-23T06:53:21.961Z,61.10
2022-12-23T06:56:23.595Z,57.30
2022-12-23T06:59:25.283Z,57.50
2022-12-23T07:05:36.497Z,52.70
2022-12-23T07:08:39.270Z,57.60
2022-12-23T07:14:42.722Z,41.60
2022-12-23T07:20:46.070Z,49.50
2022-12-23T07:26:51.076Z,41.90
2022-12-23T07:29:52.881Z,44.50
2022-12-23T07:35:59.850Z,148.60
2022-12-23T07:39:01.931Z,78.40
2022-12-23T07:42:33.822Z,63.20
2022-12-23T07:45:27.660Z,86.90
2022-12-23T07:48:30.405Z,69.40
2022-12-23T07:51:32.541Z,67.00
2022-12-23T07:54:34.251Z,58.50
2022-12-23T08:00:40.077Z,46.90
2022-12-23T08:06:43.889Z,55.10
2022-12-23T08:09:45.621Z,51.20
2022-12-23T08:15:48.955Z,51.00
2022-12-23T08:21:52.232Z,45.00
2022-12-23T08:27:55.725Z,46.10
2022-12-23T08:34:05.120Z,47.90
2022-12-23T08:40:09.270Z,52.10
2022-12-23T08:43:11.221Z,53.20
2022-12-23T08:46:13.054Z,52.70
2022-12-23T08:49:15.053Z,54.00
2022-12-23T08:52:16.895Z,60.10
2022-12-23T08:55:18.622Z,58.20
2022-12-23T08:58:20.537Z,54.00
2022-12-23T09:01:24.953Z,53.40
2022-12-23T09:04:26.629Z,54.40
2022-12-23T09:10:30.139Z,42.10
2022-12-23T09:16:38.643Z,32.20
2022-12-23T09:19:40.403Z,33.30
2022-12-23T09:22:42.214Z,28.80
2022-12-23T09:25:44.275Z,41.00
2022-12-23T09:31:47.851Z,28.10
2022-12-23T09:34:49.659Z,26.10
2022-12-23T09:40:53.072Z,27.80
2022-12-23T09:47:03.878Z,29.70
2022-12-23T09:50:32.817Z,40.20
2022-12-23T09:54:05.724Z,41.70
2022-12-23T09:57:23.158Z,40.80
2022-12-23T10:00:25.302Z,40.80
2022-12-23T10:03:57.186Z,43.10
2022-12-23T10:07:14.014Z,36.70
2022-12-23T10:10:37.433Z,37.70
2022-12-23T10:13:44.534Z,42.60
2022-12-23T10:16:50.241Z,39.00
2022-12-23T10:19:53.669Z,31.80
2022-12-23T10:22:56.089Z,30.50
2022-12-23T10:25:57.830Z,27.80
2022-12-23T10:29:19.057Z,29.80
2022-12-23T10:36:09.556Z,38.50
2022-12-23T10:39:21.673Z,51.90
2022-12-23T10:42:39.642Z,41.70
2022-12-23T10:45:52.951Z,41.40
2022-12-23T10:49:15.188Z,37.60
2022-12-23T10:52:24.201Z,32.20
2022-12-23T10:55:33.537Z,30.90
2022-12-23T10:58:40.573Z,29.50
2022-12-23T11:01:47.708Z,27.10
2022-12-23T11:04:50.032Z,27.00
2022-12-23T11:07:51.818Z,23.90
2022-12-23T11:10:55.113Z,21.60
2022-12-23T11:13:56.821Z,20.60
2022-12-23T11:16:58.561Z,19.80
2022-12-23T11:20:16.597Z,20.60
2022-12-23T11:23:30.313Z,21.00
2022-12-23T11:26:32.187Z,22.30
2022-12-23T11:29:39.317Z,19.60
2022-12-23T11:32:42.767Z,24.90
2022-12-23T11:35:44.497Z,25.90
2022-12-23T11:39:06.490Z,25.00
2022-12-23T11:42:12.945Z,22.70
2022-12-23T11:45:23.101Z,24.20
2022-12-23T11:48:29.714Z,23.60
2022-12-23T11:51:31.433Z,22.90
2022-12-23T11:54:34.123Z,22.60
2022-12-23T11:57:43.015Z,21.80
2022-12-23T12:00:55.508Z,21.00
2022-12-23T12:04:01.228Z,20.30
2022-12-23T12:07:04.239Z,23.60
2022-12-23T12:10:13.386Z,21.30
2022-12-23T12:13:52.565Z,21.40
2022-12-23T12:16:54.552Z,25.30
2022-12-23T12:20:23.061Z,24.50
2022-12-23T12:23:29.652Z,23.50
2022-12-23T12:26:33.876Z,23.90
2022-12-23T12:29:49.115Z,26.20
2022-12-23T12:32:53.871Z,25.30
2022-12-23T12:36:07.783Z,25.40
2022-12-23T12:39:17.661Z,25.50
2022-12-23T12:42:28.137Z,27.40
2022-12-23T12:45:40.078Z,29.30
2022-12-23T12:48:59.865Z,30.50
2022-12-23T12:52:26.587Z,27.30
2022-12-23T12:55:42.318Z,25.70
2022-12-23T12:58:44.763Z,25.80
2022-12-23T13:02:28.795Z,30.40
2022-12-23T13:05:58.993Z,29.90
2022-12-23T13:09:09.989Z,29.10
2022-12-23T13:12:20.898Z,28.00
2022-12-23T13:15:38.864Z,26.70
2022-12-23T13:18:52.786Z,25.10
2022-12-23T13:22:01.763Z,31.80
2022-12-23T13:25:43.911Z,34.70
2022-12-23T13:29:16.359Z,31.80
2022-12-23T13:32:41.723Z,37.20
2022-12-23T13:36:09.831Z,36.30
2022-12-23T13:39:28.933Z,28.30
2022-12-23T13:42:34.930Z,26.90
2022-12-23T13:45:38.640Z,28.20
2022-12-23T13:49:04.245Z,27.50
2022-12-23T13:52:37.341Z,30.90
2022-12-23T13:56:02.534Z,34.90
2022-12-23T13:59:09.349Z,38.80
2022-12-23T14:02:36.344Z,34.60
2022-12-23T14:05:41.110Z,32.20
2022-12-23T14:08:43.333Z,35.20
2022-12-23T14:11:45.483Z,31.40
2022-12-23T14:15:31.952Z,30.20
2022-12-23T14:19:05.109Z,33.70
2022-12-23T14:22:32.024Z,34.20
2022-12-23T14:25:58.031Z,41.30
2022-12-23T14:29:14.441Z,47.80
2022-12-23T14:32:24.131Z,49.60
2022-12-23T14:35:35.653Z,45.40
2022-12-23T14:39:13.038Z,43.80
2022-12-23T14:42:33.927Z,46.50
2022-12-23T14:45:37.328Z,45.90
2022-12-23T14:48:42.059Z,44.30
2022-12-23T14:51:43.807Z,48.80
2022-12-23T14:58:47.780Z,50.70
2022-12-23T15:01:52.381Z,43.00
2022-12-23T15:04:57.041Z,56.20
2022-12-23T15:07:58.909Z,51.50
2022-12-23T15:14:09.610Z,58.70
2022-12-23T15:17:16.732Z,61.90
2022-12-23T15:20:25.189Z,64.70
2022-12-23T15:23:27.291Z,68.90
2022-12-23T15:26:31.954Z,66.20
2022-12-23T15:29:33.628Z,63.40
2022-12-23T15:35:39.101Z,68.90
2022-12-23T15:38:40.817Z,70.50
2022-12-23T15:41:48.309Z,65.70
2022-12-23T15:44:50.420Z,81.90
2022-12-23T15:47:52.218Z,93.20
2022-12-23T15:51:13.851Z,74.40
2022-12-23T15:54:28.293Z,71.30
2022-12-23T15:57:30.703Z,67.60
2022-12-23T16:00:40.654Z,66.40
2022-12-23T16:03:46.374Z,63.70
2022-12-23T16:06:49.966Z,64.50
2022-12-23T16:09:54.897Z,67.00
2022-12-23T16:12:58.805Z,66.60
2022-12-23T16:16:20.479Z,68.00
2022-12-23T16:19:45.319Z,60.30
2022-12-23T16:22:50.472Z,57.10
2022-12-23T16:25:53.040Z,59.40
2022-12-23T16:29:00.432Z,55.50
2022-12-23T16:32:02.388Z,54.30
2022-12-23T16:35:12.127Z,53.50
2022-12-23T16:38:19.341Z,61.20
2022-12-23T16:41:21.136Z,58.80
2022-12-23T16:44:22.985Z,60.40
2022-12-23T16:47:24.802Z,62.40
2022-12-23T16:53:28.542Z,61.60
2022-12-23T16:56:34.424Z,79.70
2022-12-23T16:59:37.273Z,69.40
2022-12-23T17:02:39.121Z,66.70
2022-12-23T17:05:40.969Z,61.50
2022-12-23T17:11:49.954Z,56.00
2022-12-23T17:14:51.647Z,61.20
2022-12-23T17:17:54.136Z,53.00
2022-12-23T17:20:55.932Z,51.60
2022-12-23T17:27:02.339Z,42.80
2022-12-23T17:30:04.361Z,47.20
2022-12-23T17:33:08.715Z,56.00
2022-12-23T17:36:11.350Z,48.00
2022-12-23T17:39:13.010Z,61.80
2022-12-23T17:42:25.285Z,64.30
2022-12-23T17:45:30.061Z,62.40
2022-12-23T17:48:33.021Z,61.20
2022-12-23T17:51:34.852Z,54.20
2022-12-23T17:54:36.480Z,57.70
2022-12-23T18:00:39.849Z,61.90
2022-12-23T18:03:41.557Z,55.00
2022-12-23T18:06:43.309Z,56.70
2022-12-23T18:12:50.378Z,55.40
2022-12-23T18:15:52.770Z,54.60
2022-12-23T18:18:54.630Z,57.20
2022-12-23T18:21:56.465Z,54.50
2022-12-23T18:24:59.536Z,50.00
2022-12-23T18:28:01.523Z,51.80
2022-12-23T18:34:04.918Z,57.80
2022-12-23T18:37:09.068Z,64.30
2022-12-23T18:40:11.128Z,59.30
2022-12-23T18:43:22.547Z,62.80
2022-12-23T18:46:24.418Z,63.00
2022-12-23T18:49:26.327Z,66.80
2022-12-23T18:55:30.437Z,56.20
2022-12-23T18:58:32.156Z,50.60
2022-12-23T19:04:35.723Z,45.00
2022-12-23T19:10:39.236Z,48.50
2022-12-23T19:16:49.235Z,52.80
2022-12-23T19:19:53.183Z,51.10
2022-12-23T19:25:56.518Z,49.50
2022-12-23T19:28:58.353Z,48.60
2022-12-23T19:35:02.107Z,47.80
2022-12-23T19:38:03.847Z,52.40
2022-12-23T19:44:09.097Z,51.00
2022-12-23T19:50:12.447Z,61.90
2022-12-23T19:56:21.898Z,60.80
2022-12-23T19:59:23.747Z,67.20
2022-12-23T20:02:25.648Z,66.70
2022-12-23T20:05:27.567Z,73.10
2022-12-23T20:08:29.439Z,71.20
2022-12-23T20:14:36.491Z,85.40
2022-12-23T20:17:38.194Z,72.70
2022-12-23T20:23:45.337Z,77.30
2022-12-23T20:26:47.591Z,78.40
2022-12-23T20:29:49.405Z,68.60
2022-12-23T20:32:51.211Z,65.00
2022-12-23T20:38:55.230Z,64.30
2022-12-23T20:41:57.557Z,60.30
2022-12-23T20:44:59.254Z,63.10
2022-12-23T20:51:05.183Z,111.60
2022-12-23T20:54:07.381Z,98.80
2022-12-23T20:57:09.019Z,72.20
2022-12-23T21:03:12.663Z,56.60
2022-12-23T21:09:16.179Z,44.60
2022-12-23T21:15:19.781Z,48.90
2022-12-23T21:21:26.536Z,62.00
2022-12-23T21:24:28.354Z,63.60
2022-12-23T21:30:31.722Z,57.90
2022-12-23T21:36:39.447Z,59.20
2022-12-23T21:39:41.224Z,59.50
2022-12-23T21:42:42.955Z,60.30
2022-12-23T21:48:48.046Z,60.70
2022-12-23T21:51:49.841Z,62.50
2022-12-23T21:54:51.637Z,68.10
2022-12-23T22:00:55.065Z,66.50
2022-12-23T22:06:58.474Z,60.60
2022-12-23T22:10:00.193Z,68.50
2022-12-23T22:16:04.513Z,69.20
2022-12-23T22:19:07.071Z,69.10
2022-12-23T22:22:09.178Z,69.40
2022-12-23T22:28:12.400Z,61.60
2022-12-23T22:31:27.557Z,66.30
2022-12-23T22:34:29.241Z,63.50
2022-12-23T22:37:30.928Z,68.80
2022-12-23T22:40:32.679Z,59.00
2022-12-23T22:46:36.123Z,60.40
2022-12-23T22:52:39.441Z,64.30
2022-12-23T22:58:43.223Z,62.80
2022-12-23T23:01:44.941Z,60.90
2022-12-23T23:04:46.765Z,60.60
2022-12-23T23:10:50.205Z,50.50
2022-12-23T23:13:51.997Z,55.90
2022-12-23T23:19:55.554Z,53.40
2022-12-23T23:22:57.249Z,55.00
2022-12-23T23:29:00.601Z,63.20
2022-12-23T23:35:10.306Z,61.00
2022-12-23T23:38:12.580Z,58.20
2022-12-23T23:44:24.511Z,54.80
2022-12-23T23:50:27.845Z,56.60
2022-12-23T23:53:29.540Z,57.10
2022-12-23T23:56:37.831Z,53.60
2022-12-23T23:59:40.555Z,60.00
